Time;durP1;ratioP1;P1;durP2;ratioP2;P2;SDS_P1;SDS_P2;PMS_P1;PMS_P2;Temp;Humidity;BMP_temperature;BMP_pressure;BME280_temperature;BME280_humidity;BME280_pressure;Samples;Min_cycle;Max_cycle;Signal;HPM_P1;HPM_P2
2022/06/05 00:00:14;;;;;;;0.10;0.10;;;;;;;;;;5081484;28;20040;-84
2022/06/05 00:03:00;;;;;;;0.00;0.00;;;;;;;;;;5081032;28;20526;-83
2022/06/05 00:05:27;;;;;;;;;;;;;;;;;;5078334;28;20029;-84
2022/06/05 00:08:03;;;;;;;0.10;0.10;;;;;;;;;;5083833;28;19908;-83
2022/06/05 00:10:29;;;;;;;;;;;;;;;;;;5083877;28;20028;-83
2022/06/05 00:13:14;;;;;;;0.10;0.10;;;;;;;;;;5081739;28;19916;-83
2022/06/05 00:15:40;;;;;;;0.20;0.20;;;;;;;;;;5080541;28;20139;-83
2022/06/05 00:18:06;;;;;;;0.20;0.20;;;;;;;;;;5080684;28;20876;-83
2022/06/05 00:20:32;;;;;;;0.00;0.00;;;;;;;;;;5080682;28;20036;-84
2022/06/05 00:22:59;;;;;;;0.20;0.20;;;;;;;;;;5081423;28;20409;-84
2022/06/05 00:25:34;;;;;;;0.22;0.22;;;;;;;;;;5060155;28;20082;-84
2022/06/05 00:28:14;;;;;;;0.10;0.10;;;;;;;;;;5079298;28;20098;-84
2022/06/05 00:31:03;;;;;;;3.08;0.98;;;;;;;;;;5082797;28;20436;-82
2022/06/05 00:33:29;;;;;;;0.17;0.17;;;;;;;;;;4999347;28;20525;-83
2022/06/05 00:36:01;;;;;;;0.15;0.15;;;;;;;;;;5000680;28;20042;-83
2022/06/05 00:38:36;;;;;;;3.60;0.47;;;;;;;;;;5000463;28;20115;-82
2022/06/05 00:41:17;;;;;;;0.75;0.40;;;;;;;;;;5000686;28;20034;-83
2022/06/05 00:43:44;;;;;;;0.90;0.57;;;;;;;;;;5001877;28;20121;-80
2022/06/05 00:46:10;;;;;;;0.00;0.00;;;;;;;;;;5000983;28;20037;-80
2022/06/05 00:48:36;;;;;;;0.00;0.00;;;;;;;;;;5001029;28;20108;-81
2022/06/05 00:51:03;;;;;;;0.10;0.10;;;;;;;;;;5000775;28;20132;-81
2022/06/05 00:53:29;;;;;;;;;;;;;;;;;;5000252;28;20045;-82
2022/06/05 00:55:55;;;;;;;2.30;1.65;;;;;;;;;;5000407;28;19909;-82
2022/06/05 00:58:22;;;;;;;1.20;0.85;;;;;;;;;;5000760;28;20365;-82
2022/06/05 01:00:49;;;;;;;0.10;0.10;;;;;;;;;;5000528;28;20053;-82
2022/06/05 01:03:15;;;;;;;0.10;0.10;;;;;;;;;;5000560;28;20030;-82
2022/06/05 01:05:41;;;;;;;2.20;0.63;;;;;;;;;;5000315;28;20053;-82
2022/06/05 01:08:09;;;;;;;0.38;0.38;;;;;;;;;;5000475;28;20033;-82
2022/06/05 01:10:57;;;;;;;1.00;0.57;;;;;;;;;;5043955;28;20036;-82
2022/06/05 01:13:35;;;;;;;0.20;0.20;;;;;;;;;;5082722;28;20032;-82
2022/06/05 01:16:07;;;;;;;0.00;0.00;;;;;;;;;;5079843;28;20028;-82
2022/06/05 01:18:51;;;;;;;0.47;0.10;;;;;;;;;;5076129;28;20042;-82
2022/06/05 01:21:22;;;;;;;0.00;0.00;;;;;;;;;;5078165;28;20047;-79
2022/06/05 01:23:58;;;;;;;7.22;2.50;;;;;;;;;;5077511;28;20027;-84
2022/06/05 01:26:43;;;;;;;0.10;0.10;;;;;;;;;;5076898;28;20063;-78
2022/06/05 01:29:28;;;;;;;0.15;0.15;;;;;;;;;;5079818;28;20420;-80
2022/06/05 01:31:56;;;;;;;0.00;0.00;;;;;;;;;;5077329;28;20036;-80
2022/06/05 01:34:37;;;;;;;1.13;0.80;;;;;;;;;;5077786;28;20070;-81
2022/06/05 01:37:09;;;;;;;0.10;0.10;;;;;;;;;;5077842;28;20032;-78
2022/06/05 01:39:39;;;;;;;0.47;0.47;;;;;;;;;;5079057;28;20034;-79
2022/06/05 01:42:11;;;;;;;0.30;0.30;;;;;;;;;;5078960;28;20066;-79
2022/06/05 01:44:39;;;;;;;0.00;0.00;;;;;;;;;;5081371;28;20496;-77
2022/06/05 01:47:08;;;;;;;0.30;0.30;;;;;;;;;;5080381;28;20115;-80
2022/06/05 01:49:38;;;;;;;0.82;0.82;;;;;;;;;;5079739;28;20028;-80
2022/06/05 01:52:08;;;;;;;0.55;0.47;;;;;;;;;;5078396;28;20043;-83
2022/06/05 01:54:50;;;;;;;0.28;0.28;;;;;;;;;;5077691;28;20381;-79
2022/06/05 01:57:18;;;;;;;0.35;0.35;;;;;;;;;;5080311;28;20024;-80
2022/06/05 02:00:13;;;;;;;0.20;0.20;;;;;;;;;;5076481;28;20097;-81
2022/06/05 02:02:48;;;;;;;0.03;0.03;;;;;;;;;;5058118;28;20610;-82
2022/06/05 02:05:17;;;;;;;0.00;0.00;;;;;;;;;;5074574;28;20028;-78
2022/06/05 02:07:48;;;;;;;0.20;0.20;;;;;;;;;;5075712;28;20118;-80
2022/06/05 02:10:35;;;;;;;0.13;0.13;;;;;;;;;;5079264;28;20028;-79
2022/06/05 02:13:01;;;;;;;0.10;0.10;;;;;;;;;;5080444;28;20031;-80
2022/06/05 02:15:28;;;;;;;0.80;0.20;;;;;;;;;;5058332;28;20028;-79
2022/06/05 02:17:58;;;;;;;0.20;0.20;;;;;;;;;;5074147;28;20032;-79
2022/06/05 02:20:24;;;;;;;0.10;0.10;;;;;;;;;;5074435;28;20040;-79
2022/06/05 02:22:51;;;;;;;0.20;0.20;;;;;;;;;;5084173;28;20396;-79
2022/06/05 02:25:19;;;;;;;0.10;0.10;;;;;;;;;;5080094;28;20040;-78
2022/06/05 02:27:45;;;;;;;0.30;0.10;;;;;;;;;;5081167;28;20180;-78
2022/06/05 02:30:12;;;;;;;0.52;0.20;;;;;;;;;;5081343;28;20063;-78
2022/06/05 02:32:44;;;;;;;0.25;0.10;;;;;;;;;;5082060;28;20032;-78
2022/06/05 02:35:10;;;;;;;0.20;0.20;;;;;;;;;;5082287;28;20020;-78
2022/06/05 02:37:44;;;;;;;0.10;0.10;;;;;;;;;;5084619;28;20031;-77
2022/06/05 02:40:22;;;;;;;0.75;0.75;;;;;;;;;;5080776;28;20072;-78
2022/06/05 02:43:06;;;;;;;0.10;0.10;;;;;;;;;;5083519;28;20055;-74
2022/06/05 02:45:51;;;;;;;0.10;0.10;;;;;;;;;;5081770;28;20028;-74
2022/06/05 02:48:17;;;;;;;0.32;0.32;;;;;;;;;;5067056;28;20024;-74
2022/06/05 02:50:46;;;;;;;5.63;0.60;;;;;;;;;;5077857;28;20028;-74
2022/06/05 02:53:13;;;;;;;0.20;0.20;;;;;;;;;;5064910;28;20051;-74
2022/06/05 02:55:39;;;;;;;;;;;;;;;;;;5084397;28;20048;-74
2022/06/05 02:58:05;;;;;;;0.10;0.10;;;;;;;;;;5081782;28;19994;-75
2022/06/05 03:00:33;;;;;;;0.10;0.10;;;;;;;;;;5081174;28;20051;-74
2022/06/05 03:05:44;;;;;;;0.20;0.20;;;;;;;;;;5084672;28;20042;-75
2022/06/05 03:08:13;;;;;;;0.03;0.03;;;;;;;;;;5083140;28;20028;-75
2022/06/05 03:10:39;;;;;;;0.25;0.25;;;;;;;;;;5084416;28;20023;-74
2022/06/05 03:13:05;;;;;;;0.10;0.10;;;;;;;;;;5084162;28;20020;-74
2022/06/05 03:15:31;;;;;;;0.00;0.00;;;;;;;;;;5082719;28;20067;-74
2022/06/05 03:17:57;;;;;;;0.03;0.03;;;;;;;;;;5082580;28;20024;-74
2022/06/05 03:20:24;;;;;;;0.30;0.30;;;;;;;;;;5064496;28;20032;-75
2022/06/05 03:22:50;;;;;;;0.05;0.05;;;;;;;;;;5084798;28;20290;-75
2022/06/05 03:25:21;;;;;;;0.13;0.13;;;;;;;;;;5083013;28;20024;-75
2022/06/05 03:27:48;;;;;;;0.03;0.03;;;;;;;;;;5082190;28;20603;-74
2022/06/05 03:30:15;;;;;;;25.83;1.77;;;;;;;;;;5082179;28;20144;-75
2022/06/05 03:32:41;;;;;;;;;;;;;;;;;;5077538;28;20575;-75
2022/06/05 03:35:07;;;;;;;0.60;0.43;;;;;;;;;;5082638;28;19922;-74
2022/06/05 03:37:33;;;;;;;0.00;0.00;;;;;;;;;;5083310;28;20467;-74
2022/06/05 03:39:59;;;;;;;0.52;0.52;;;;;;;;;;5074021;28;20046;-75
2022/06/05 03:42:26;;;;;;;0.20;0.20;;;;;;;;;;5080314;28;20123;-74
2022/06/05 03:44:52;;;;;;;0.00;0.00;;;;;;;;;;5078683;28;20059;-74
2022/06/05 03:47:18;;;;;;;0.17;0.17;;;;;;;;;;5081401;28;20035;-74
2022/06/05 03:49:44;;;;;;;0.10;0.10;;;;;;;;;;5083183;28;20031;-74
2022/06/05 03:52:11;;;;;;;0.10;0.10;;;;;;;;;;5064610;28;20081;-74
2022/06/05 03:54:38;;;;;;;0.10;0.10;;;;;;;;;;5079523;28;20028;-74
2022/06/05 03:57:05;;;;;;;0.10;0.10;;;;;;;;;;5083291;28;20072;-74
2022/06/05 03:59:31;;;;;;;1.27;0.68;;;;;;;;;;5078921;28;20043;-74
2022/06/05 04:01:57;;;;;;;0.20;0.20;;;;;;;;;;5080522;28;20738;-75
2022/06/05 04:04:23;;;;;;;0.10;0.10;;;;;;;;;;5080848;28;20040;-75
2022/06/05 04:06:49;;;;;;;0.07;0.07;;;;;;;;;;5058988;28;20306;-74
2022/06/05 04:09:15;;;;;;;0.40;0.40;;;;;;;;;;5077671;28;20081;-75
2022/06/05 04:11:41;;;;;;;0.30;0.30;;;;;;;;;;5081523;28;20270;-75
2022/06/05 04:14:08;;;;;;;4.70;1.40;;;;;;;;;;5083104;28;20687;-75
2022/06/05 04:16:35;;;;;;;0.40;0.40;;;;;;;;;;5083981;28;20024;-74
2022/06/05 04:19:01;;;;;;;0.13;0.13;;;;;;;;;;5081323;28;20036;-74
2022/06/05 04:21:29;;;;;;;0.00;0.00;;;;;;;;;;5080613;28;20112;-75
2022/06/05 04:23:56;;;;;;;0.00;0.00;;;;;;;;;;5070882;28;20031;-75
2022/06/05 04:26:23;;;;;;;0.43;0.20;;;;;;;;;;5078934;28;20081;-74
2022/06/05 04:28:52;;;;;;;0.10;0.10;;;;;;;;;;5083907;28;20745;-74
2022/06/05 04:31:21;;;;;;;0.43;0.43;;;;;;;;;;5081830;28;20028;-75
2022/06/05 04:33:47;;;;;;;0.20;0.20;;;;;;;;;;5081639;28;20040;-74
2022/06/05 04:36:14;;;;;;;0.52;0.52;;;;;;;;;;5075877;28;20031;-74
2022/06/05 04:38:40;;;;;;;3.63;0.20;;;;;;;;;;5075133;28;20458;-75
2022/06/05 04:41:06;;;;;;;0.10;0.10;;;;;;;;;;5060771;28;20044;-74
2022/06/05 04:43:32;;;;;;;0.40;0.40;;;;;;;;;;5083396;28;20130;-80
2022/06/05 04:45:58;;;;;;;0.22;0.22;;;;;;;;;;5081356;28;20798;-80
2022/06/05 04:48:55;;;;;;;0.93;0.93;;;;;;;;;;5080992;28;20550;-81
2022/06/05 04:51:22;;;;;;;0.50;0.50;;;;;;;;;;5060539;28;20453;-80
2022/06/05 04:53:50;;;;;;;3.08;0.47;;;;;;;;;;5080863;28;20055;-80
2022/06/05 04:56:18;;;;;;;0.60;0.60;;;;;;;;;;5075982;28;20054;-82
2022/06/05 04:58:45;;;;;;;0.50;0.50;;;;;;;;;;5078967;28;20101;-83
2022/06/05 05:01:19;;;;;;;0.45;0.45;;;;;;;;;;5061402;28;20101;-83
2022/06/05 05:03:46;;;;;;;0.80;0.80;;;;;;;;;;5074984;28;20055;-82
2022/06/05 05:06:12;;;;;;;1.70;0.95;;;;;;;;;;5078016;28;20058;-82
2022/06/05 05:08:38;;;;;;;0.30;0.30;;;;;;;;;;5080309;28;20085;-83
2022/06/05 05:11:05;;;;;;;1.33;0.63;;;;;;;;;;5081177;28;20524;-83
2022/06/05 05:13:31;;;;;;;0.17;0.17;;;;;;;;;;5081663;28;20043;-83
2022/06/05 05:15:57;;;;;;;0.30;0.30;;;;;;;;;;5077818;28;20038;-82
2022/06/05 05:18:24;;;;;;;0.10;0.10;;;;;;;;;;5080030;28;20282;-82
2022/06/05 05:20:50;;;;;;;0.52;0.52;;;;;;;;;;5064318;28;20460;-79
2022/06/05 05:23:19;;;;;;;0.20;0.20;;;;;;;;;;5082010;28;20038;-81
2022/06/05 05:25:46;;;;;;;0.35;0.35;;;;;;;;;;5079232;28;20051;-78
2022/06/05 05:28:11;;;;;;;;;;;;;;;;;;5082421;28;20040;-77
2022/06/05 05:30:37;;;;;;;0.30;0.30;;;;;;;;;;5077797;28;20062;-79
2022/06/05 05:33:34;;;;;;;0.20;0.20;;;;;;;;;;5079252;28;20032;-83
2022/06/05 05:36:01;;;;;;;0.32;0.30;;;;;;;;;;5074872;28;20118;-80
2022/06/05 05:38:27;;;;;;;0.40;0.40;;;;;;;;;;5075478;28;20033;-80
2022/06/05 05:43:37;;;;;;;0.40;0.40;;;;;;;;;;5081302;28;20801;-76
2022/06/05 05:46:07;;;;;;;0.83;0.83;;;;;;;;;;5076201;28;20036;-76
2022/06/05 05:48:33;;;;;;;0.40;0.40;;;;;;;;;;5078158;28;20405;-76
2022/06/05 05:50:59;;;;;;;0.30;0.30;;;;;;;;;;5074015;28;20529;-76
2022/06/05 05:53:25;;;;;;;1.80;1.70;;;;;;;;;;5076320;28;20025;-76
2022/06/05 05:55:51;;;;;;;0.30;0.30;;;;;;;;;;5079688;28;20824;-76
2022/06/05 05:58:17;;;;;;;0.40;0.40;;;;;;;;;;5080963;28;20773;-76
2022/06/05 06:00:43;;;;;;;2.03;0.80;;;;;;;;;;5079580;28;20039;-76
2022/06/05 06:03:09;;;;;;;0.47;0.47;;;;;;;;;;5079444;28;20273;-76
2022/06/05 06:05:36;;;;;;;1.15;0.38;;;;;;;;;;5079477;28;20040;-77
2022/06/05 06:08:02;;;;;;;0.90;0.80;;;;;;;;;;5081338;28;20031;-76
2022/06/05 06:10:28;;;;;;;0.40;0.40;;;;;;;;;;5062279;28;20040;-76
2022/06/05 06:12:54;;;;;;;1.00;0.77;;;;;;;;;;5079015;28;20069;-76
2022/06/05 06:15:20;;;;;;;0.50;0.50;;;;;;;;;;5077956;28;20105;-76
2022/06/05 06:17:46;;;;;;;2.27;0.63;;;;;;;;;;5059940;28;20485;-76
2022/06/05 06:20:12;;;;;;;0.28;0.20;;;;;;;;;;5078399;28;20290;-75
2022/06/05 06:22:41;;;;;;;2.55;0.75;;;;;;;;;;5077175;28;20047;-76
2022/06/05 06:25:07;;;;;;;1.40;0.50;;;;;;;;;;5061512;28;20047;-76
2022/06/05 06:27:33;;;;;;;0.52;0.52;;;;;;;;;;5063239;28;20047;-76
2022/06/05 06:29:59;;;;;;;2.03;0.57;;;;;;;;;;5079412;28;20558;-76
2022/06/05 06:32:25;;;;;;;0.35;0.35;;;;;;;;;;5078403;28;20021;-79
2022/06/05 06:34:51;;;;;;;2.13;0.55;;;;;;;;;;5081015;28;20081;-80
2022/06/05 06:37:20;;;;;;;0.57;0.57;;;;;;;;;;5080436;28;20036;-79
2022/06/05 06:39:46;;;;;;;0.40;0.40;;;;;;;;;;5078987;28;20290;-79
2022/06/05 06:42:12;;;;;;;0.77;0.77;;;;;;;;;;5077693;28;20040;-77
2022/06/05 06:44:38;;;;;;;0.60;0.60;;;;;;;;;;5080763;28;20140;-77
2022/06/05 06:47:04;;;;;;;0.20;0.20;;;;;;;;;;5077629;28;20028;-78
2022/06/05 06:49:31;;;;;;;0.22;0.22;;;;;;;;;;5078745;28;20082;-78
2022/06/05 06:51:57;;;;;;;0.30;0.30;;;;;;;;;;5077681;28;20040;-79
2022/06/05 06:54:23;;;;;;;0.77;0.77;;;;;;;;;;5079031;28;20475;-79
2022/06/05 06:56:50;;;;;;;0.20;0.20;;;;;;;;;;5061362;28;21041;-80
2022/06/05 06:59:16;;;;;;;0.75;0.60;;;;;;;;;;5072606;28;20063;-80
2022/06/05 07:01:42;;;;;;;0.37;0.37;;;;;;;;;;5082029;28;20044;-80
2022/06/05 07:04:08;;;;;;;0.50;0.30;;;;;;;;;;5080254;28;20705;-81
2022/06/05 07:06:34;;;;;;;0.45;0.45;;;;;;;;;;5065742;28;20447;-86
2022/06/05 07:09:00;;;;;;;7.70;1.38;;;;;;;;;;5063458;28;20024;-81
2022/06/05 07:11:26;;;;;;;0.20;0.20;;;;;;;;;;5083731;28;20436;-80
2022/06/05 07:13:52;;;;;;;2.08;0.77;;;;;;;;;;5085266;28;20032;-80
2022/06/05 07:16:19;;;;;;;0.85;0.82;;;;;;;;;;5081739;28;20035;-80
2022/06/05 07:18:45;;;;;;;0.60;0.60;;;;;;;;;;5080601;28;20111;-81
2022/06/05 07:21:15;;;;;;;0.68;0.68;;;;;;;;;;5081282;28;20227;-79
2022/06/05 07:23:42;;;;;;;0.70;0.70;;;;;;;;;;5081234;28;20035;-80
2022/06/05 07:26:09;;;;;;;1.17;1.08;;;;;;;;;;5083305;28;20051;-79
2022/06/05 07:28:35;;;;;;;0.57;0.57;;;;;;;;;;5084638;28;20544;-81
2022/06/05 07:31:02;;;;;;;0.20;0.20;;;;;;;;;;5060077;28;20036;-82
2022/06/05 07:33:30;;;;;;;0.30;0.30;;;;;;;;;;5075776;28;20103;-81
2022/06/05 07:35:57;;;;;;;0.55;0.38;;;;;;;;;;5077928;28;20031;-82
2022/06/05 07:38:23;;;;;;;;;;;;;;;;;;5081758;28;20036;-80
2022/06/05 07:40:49;;;;;;;0.65;0.43;;;;;;;;;;5083906;28;19926;-79
2022/06/05 07:43:15;;;;;;;1.45;0.68;;;;;;;;;;5082128;28;20056;-80
2022/06/05 07:45:44;;;;;;;0.38;0.38;;;;;;;;;;5082886;28;20027;-86
2022/06/05 07:48:11;;;;;;;0.52;0.52;;;;;;;;;;5080104;28;20046;-86
2022/06/05 07:54:26;;;;;;;0.35;0.35;;;;;;;;;;5084068;28;20048;-84
2022/06/05 07:56:07;;;;;;;0.30;0.30;;;;;;;;;;5082984;28;20047;-87
2022/06/05 07:58:33;;;;;;;0.35;0.35;;;;;;;;;;5081660;28;20036;-87
2022/06/05 08:00:59;;;;;;;0.50;0.50;;;;;;;;;;5081109;28;20046;-87
2022/06/05 08:03:25;;;;;;;0.75;0.63;;;;;;;;;;5080423;28;20028;-86
2022/06/05 08:05:51;;;;;;;0.40;0.40;;;;;;;;;;5077971;28;20024;-87
2022/06/05 08:08:17;;;;;;;0.57;0.38;;;;;;;;;;5080154;28;20896;-86
2022/06/05 08:10:43;;;;;;;0.20;0.20;;;;;;;;;;5083367;28;20716;-87
2022/06/05 08:13:09;;;;;;;4.97;0.93;;;;;;;;;;5082249;28;20508;-87
2022/06/05 08:15:35;;;;;;;0.20;0.20;;;;;;;;;;5080484;28;20047;-87
2022/06/05 08:18:02;;;;;;;0.35;0.35;;;;;;;;;;5082060;28;20031;-86
2022/06/05 08:20:28;;;;;;;0.20;0.20;;;;;;;;;;5081427;28;20047;-86
2022/06/05 08:22:55;;;;;;;0.10;0.10;;;;;;;;;;5081309;28;20028;-87
2022/06/05 08:25:21;;;;;;;0.28;0.28;;;;;;;;;;5080662;28;20893;-86
2022/06/05 08:27:48;;;;;;;0.43;0.43;;;;;;;;;;5080458;28;20060;-87
2022/06/05 08:30:14;;;;;;;0.50;0.50;;;;;;;;;;5080829;28;20043;-88
2022/06/05 08:32:40;;;;;;;0.10;0.10;;;;;;;;;;5076937;28;20111;-87
2022/06/05 08:35:07;;;;;;;0.32;0.32;;;;;;;;;;5079628;28;20126;-87
2022/06/05 08:43:13;;;;;;;1.33;0.45;;;;;;;;;;5079721;28;20503;-80
2022/06/05 08:45:47;;;;;;;0.15;0.15;;;;;;;;;;5081615;28;20032;-83
2022/06/05 08:48:29;;;;;;;0.20;0.20;;;;;;;;;;5080647;28;20099;-82
2022/06/05 08:50:57;;;;;;;0.55;0.30;;;;;;;;;;5074029;28;20032;-83
2022/06/05 08:53:31;;;;;;;0.20;0.15;;;;;;;;;;5081184;28;20028;-82
2022/06/05 08:55:58;;;;;;;0.03;0.03;;;;;;;;;;5081616;28;20326;-83
2022/06/05 08:58:45;;;;;;;0.25;0.20;;;;;;;;;;5078945;28;20100;-82
2022/06/05 09:01:13;;;;;;;0.30;0.30;;;;;;;;;;5080238;28;20669;-83
2022/06/05 09:03:44;;;;;;;0.98;0.63;;;;;;;;;;5081645;28;20039;-83
2022/06/05 09:06:15;;;;;;;0.20;0.20;;;;;;;;;;5079912;28;20035;-81
2022/06/05 09:08:42;;;;;;;2.20;0.55;;;;;;;;;;5062876;28;20601;-84
2022/06/05 09:11:29;;;;;;;0.15;0.15;;;;;;;;;;5062855;28;20110;-86
2022/06/05 09:14:01;;;;;;;0.20;0.20;;;;;;;;;;5079657;28;20113;-80
2022/06/05 09:16:29;;;;;;;7.13;0.98;;;;;;;;;;5082973;28;20094;-83
2022/06/05 09:18:56;;;;;;;0.00;0.00;;;;;;;;;;5081100;28;20024;-81
2022/06/05 09:21:22;;;;;;;;;;;;;;;;;;5080561;28;20052;-81
2022/06/05 09:24:00;;;;;;;0.50;0.32;;;;;;;;;;5078325;28;19912;-81
2022/06/05 09:26:26;;;;;;;0.38;0.38;;;;;;;;;;5056914;28;20039;-81
2022/06/05 09:29:01;;;;;;;0.40;0.40;;;;;;;;;;5079894;28;20071;-81
2022/06/05 09:31:46;;;;;;;0.10;0.10;;;;;;;;;;5080247;28;20067;-82
2022/06/05 09:34:13;;;;;;;1.65;1.05;;;;;;;;;;5078889;28;20408;-81
2022/06/05 09:36:41;;;;;;;0.20;0.20;;;;;;;;;;5079762;28;20432;-82
2022/06/05 09:39:22;;;;;;;0.20;0.20;;;;;;;;;;5074332;28;20031;-80
2022/06/05 09:41:54;;;;;;;0.10;0.10;;;;;;;;;;5062129;28;20040;-83
2022/06/05 09:44:30;;;;;;;0.03;0.03;;;;;;;;;;5074572;28;20485;-79
2022/06/05 09:47:00;;;;;;;1.13;0.75;;;;;;;;;;5079600;28;20032;-84
2022/06/05 09:49:38;;;;;;;0.20;0.20;;;;;;;;;;5078291;28;20056;-82
2022/06/05 09:52:14;;;;;;;0.10;0.10;;;;;;;;;;5074024;28;20032;-81
2022/06/05 09:54:43;;;;;;;0.60;0.60;;;;;;;;;;5077800;28;20020;-80
2022/06/05 10:00:14;;;;;;;0.10;0.10;;;;;;;;;;5075920;28;20100;-79
2022/06/05 10:02:41;;;;;;;0.55;0.55;;;;;;;;;;5076055;28;20051;-80
2022/06/05 10:05:07;;;;;;;;;;;;;;;;;;5080671;28;20446;-80
2022/06/05 10:07:35;;;;;;;0.52;0.28;;;;;;;;;;5062975;28;19912;-80
2022/06/05 10:10:06;;;;;;;0.25;0.22;;;;;;;;;;5078870;28;20106;-80
2022/06/05 10:12:36;;;;;;;0.08;0.08;;;;;;;;;;5078645;28;20392;-79
2022/06/05 10:15:02;;;;;;;0.00;0.00;;;;;;;;;;5078734;28;20040;-79
2022/06/05 10:17:28;;;;;;;0.00;0.00;;;;;;;;;;5080277;28;20026;-79
2022/06/05 10:19:58;;;;;;;0.10;0.10;;;;;;;;;;5081508;28;20131;-80
2022/06/05 10:22:30;;;;;;;0.10;0.10;;;;;;;;;;5063895;28;20077;-80
2022/06/05 10:25:02;;;;;;;2.17;0.93;;;;;;;;;;5073646;28;20028;-80
2022/06/05 10:27:29;;;;;;;0.47;0.47;;;;;;;;;;5074738;28;20045;-80
2022/06/05 10:29:56;;;;;;;0.65;0.60;;;;;;;;;;5068839;28;20042;-81
2022/06/05 10:32:33;;;;;;;0.30;0.30;;;;;;;;;;5049282;28;20029;-80
2022/06/05 10:35:17;;;;;;;1.25;0.93;;;;;;;;;;5046697;28;20536;-80
2022/06/05 10:37:43;;;;;;;0.13;0.13;;;;;;;;;;5065746;28;20025;-81
2022/06/05 10:40:13;;;;;;;0.47;0.47;;;;;;;;;;5070646;28;20060;-81
2022/06/05 10:42:39;;;;;;;0.20;0.20;;;;;;;;;;5070868;28;20037;-80
2022/06/05 10:45:05;;;;;;;3.10;0.90;;;;;;;;;;5077040;28;20029;-80
2022/06/05 10:47:59;;;;;;;0.28;0.28;;;;;;;;;;5067352;28;20032;-80
2022/06/05 10:50:29;;;;;;;0.25;0.22;;;;;;;;;;5068371;28;20571;-81
2022/06/05 10:52:58;;;;;;;0.40;0.40;;;;;;;;;;5070800;28;20060;-80
2022/06/05 10:55:43;;;;;;;0.20;0.20;;;;;;;;;;5073253;28;20073;-81
2022/06/05 10:58:14;;;;;;;1.00;0.30;;;;;;;;;;5073919;28;20064;-83
2022/06/05 11:00:49;;;;;;;0.65;0.40;;;;;;;;;;5073550;28;20519;-83
2022/06/05 11:03:28;;;;;;;0.22;0.22;;;;;;;;;;5071386;28;20028;-83
2022/06/05 11:06:14;;;;;;;0.20;0.20;;;;;;;;;;5078943;28;20055;-82
2022/06/05 11:08:44;;;;;;;2.83;0.98;;;;;;;;;;5072769;28;20485;-81
2022/06/05 11:14:27;;;;;;;0.10;0.10;;;;;;;;;;5077681;28;20157;-83
2022/06/05 11:17:00;;;;;;;2.10;0.50;;;;;;;;;;5084006;28;20128;-85
2022/06/05 11:19:41;;;;;;;0.13;0.13;;;;;;;;;;5084521;28;20032;-86
2022/06/05 11:22:13;;;;;;;0.20;0.20;;;;;;;;;;5080961;28;20051;-85
2022/06/05 11:24:42;;;;;;;0.10;0.10;;;;;;;;;;5078420;28;20082;-80
2022/06/05 11:27:11;;;;;;;0.20;0.20;;;;;;;;;;5081854;28;20138;-80
2022/06/05 11:29:38;;;;;;;0.47;0.47;;;;;;;;;;5084292;28;20030;-80
2022/06/05 11:32:07;;;;;;;0.20;0.20;;;;;;;;;;5084189;28;20413;-80
2022/06/05 11:34:39;;;;;;;0.00;0.00;;;;;;;;;;5084095;28;20063;-80
2022/06/05 11:37:12;;;;;;;0.17;0.17;;;;;;;;;;5081663;28;20444;-80
2022/06/05 11:39:46;;;;;;;0.88;0.35;;;;;;;;;;5080984;28;20024;-80
2022/06/05 11:42:26;;;;;;;0.25;0.15;;;;;;;;;;5082114;28;20062;-80
2022/06/05 11:45:08;;;;;;;3.78;0.40;;;;;;;;;;5085301;28;20093;-85
2022/06/05 11:47:43;;;;;;;0.43;0.35;;;;;;;;;;5055171;28;20043;-86
2022/06/05 11:50:29;;;;;;;0.22;0.10;;;;;;;;;;5083198;28;24888;-86
2022/06/05 11:53:12;;;;;;;0.00;0.00;;;;;;;;;;5083510;28;20032;-86
2022/06/05 11:55:53;;;;;;;0.20;0.20;;;;;;;;;;5085103;28;20043;-86
2022/06/05 11:58:25;;;;;;;0.40;0.28;;;;;;;;;;5067912;28;20074;-87
2022/06/05 12:00:51;;;;;;;0.38;0.38;;;;;;;;;;5082137;28;20058;-87
2022/06/05 12:03:39;;;;;;;0.70;0.70;;;;;;;;;;5081669;28;20518;-86
2022/06/05 12:06:14;;;;;;;0.95;0.25;;;;;;;;;;5073836;28;20059;-86
2022/06/05 12:08:42;;;;;;;0.10;0.10;;;;;;;;;;5083278;28;20028;-86
2022/06/05 12:11:08;;;;;;;0.20;0.20;;;;;;;;;;5065264;28;20093;-86
2022/06/05 12:13:53;;;;;;;0.10;0.10;;;;;;;;;;5085810;28;20032;-86
2022/06/05 12:16:34;;;;;;;0.20;0.13;;;;;;;;;;5078588;28;20036;-87
2022/06/05 12:19:07;;;;;;;0.20;0.20;;;;;;;;;;5083920;28;20036;-87
2022/06/05 12:21:54;;;;;;;0.85;0.55;;;;;;;;;;5083736;28;20039;-87
2022/06/05 12:24:22;;;;;;;0.00;0.00;;;;;;;;;;5081262;28;20044;-86
2022/06/05 12:26:53;;;;;;;0.28;0.28;;;;;;;;;;5054986;28;20417;-86
2022/06/05 12:29:25;;;;;;;1.75;0.45;;;;;;;;;;5047419;28;20056;-87
2022/06/05 12:32:12;;;;;;;0.17;0.17;;;;;;;;;;5051238;28;20028;-87
2022/06/05 12:35:05;;;;;;;0.30;0.30;;;;;;;;;;5052736;28;20033;-86
2022/06/05 12:37:36;;;;;;;0.17;0.17;;;;;;;;;;4971594;28;20078;-87
2022/06/05 12:40:04;;;;;;;0.10;0.05;;;;;;;;;;4958197;28;20159;-86
2022/06/05 12:42:41;;;;;;;0.22;0.13;;;;;;;;;;4960713;28;20070;-87
2022/06/05 12:45:23;;;;;;;0.22;0.13;;;;;;;;;;4952794;28;20066;-86
2022/06/05 12:48:04;;;;;;;0.20;0.20;;;;;;;;;;4969397;28;20146;-87
2022/06/05 12:50:49;;;;;;;0.25;0.25;;;;;;;;;;4970196;28;20031;-87
2022/06/05 12:53:23;;;;;;;0.25;0.25;;;;;;;;;;4970517;28;20038;-88
2022/06/05 12:56:07;;;;;;;0.25;0.25;;;;;;;;;;4969216;28;20042;-86
2022/06/05 12:58:57;;;;;;;0.17;0.17;;;;;;;;;;4969673;28;20036;-87
2022/06/05 13:01:27;;;;;;;0.38;0.22;;;;;;;;;;4910402;29;20059;-86
2022/06/05 13:04:14;;;;;;;0.20;0.20;;;;;;;;;;4910308;29;20031;-87
2022/06/05 13:06:43;;;;;;;0.50;0.50;;;;;;;;;;4910814;29;20054;-87
2022/06/05 13:09:21;;;;;;;0.20;0.10;;;;;;;;;;4913697;29;20032;-87
2022/06/05 13:11:51;;;;;;;0.03;0.03;;;;;;;;;;4904720;29;20513;-87
2022/06/05 13:14:25;;;;;;;0.10;0.10;;;;;;;;;;4949044;28;20089;-87
2022/06/05 13:16:57;;;;;;;0.30;0.30;;;;;;;;;;5008082;28;20029;-87
2022/06/05 13:19:23;;;;;;;0.80;0.30;;;;;;;;;;5007705;28;20052;-87
2022/06/05 13:22:01;;;;;;;0.68;0.55;;;;;;;;;;5005394;28;20038;-87
2022/06/05 13:24:34;;;;;;;1.45;0.40;;;;;;;;;;5007487;28;20515;-88
2022/06/05 13:27:23;;;;;;;3.10;0.38;;;;;;;;;;5001716;28;20411;-87
2022/06/05 13:29:55;;;;;;;0.10;0.10;;;;;;;;;;5020640;28;20060;-87
2022/06/05 13:32:24;;;;;;;0.10;0.10;;;;;;;;;;4999759;28;20056;-88
2022/06/05 13:35:00;;;;;;;0.28;0.25;;;;;;;;;;5001661;28;20687;-87
2022/06/05 13:37:47;;;;;;;0.00;0.00;;;;;;;;;;5025813;28;20103;-87
2022/06/05 13:40:24;;;;;;;0.20;0.20;;;;;;;;;;5058214;28;20080;-87
2022/06/05 13:42:51;;;;;;;0.10;0.10;;;;;;;;;;5059229;28;20081;-81
2022/06/05 13:45:19;;;;;;;0.00;0.00;;;;;;;;;;5059299;28;20703;-81
2022/06/05 13:47:53;;;;;;;0.00;0.00;;;;;;;;;;5059339;28;20437;-81
2022/06/05 13:50:19;;;;;;;0.80;0.52;;;;;;;;;;5059689;28;20029;-80
2022/06/05 13:52:51;;;;;;;0.10;0.10;;;;;;;;;;5062029;28;20032;-81
2022/06/05 13:55:17;;;;;;;0.40;0.40;;;;;;;;;;5059669;28;20076;-81
2022/06/05 13:57:58;;;;;;;0.20;0.20;;;;;;;;;;5059516;28;20032;-81
2022/06/05 14:00:28;;;;;;;0.28;0.10;;;;;;;;;;5056455;28;20055;-81
2022/06/05 14:03:08;;;;;;;0.10;0.10;;;;;;;;;;5058075;28;20028;-80
2022/06/05 14:05:36;;;;;;;0.30;0.13;;;;;;;;;;5057470;28;20109;-81
2022/06/05 14:08:05;;;;;;;0.00;0.00;;;;;;;;;;5060579;28;20531;-81
2022/06/05 14:10:33;;;;;;;0.00;0.00;;;;;;;;;;5059760;28;20028;-81
2022/06/05 14:13:00;;;;;;;0.50;0.45;;;;;;;;;;5062663;28;20031;-80
2022/06/05 14:15:27;;;;;;;0.60;0.50;;;;;;;;;;5065346;28;20032;-80
2022/06/05 14:17:55;;;;;;;1.60;0.50;;;;;;;;;;5062940;28;20073;-80
2022/06/05 14:20:22;;;;;;;0.00;0.00;;;;;;;;;;5058099;28;20109;-80
2022/06/05 14:22:50;;;;;;;0.32;0.20;;;;;;;;;;5062195;28;20055;-81
2022/06/05 14:25:19;;;;;;;0.47;0.45;;;;;;;;;;5056431;28;20055;-81
2022/06/05 14:27:45;;;;;;;0.20;0.10;;;;;;;;;;5062586;28;20048;-81
2022/06/05 14:30:38;;;;;;;0.08;0.08;;;;;;;;;;5062582;28;20029;-81
2022/06/05 14:33:07;;;;;;;0.20;0.13;;;;;;;;;;5049277;28;20040;-81
2022/06/05 14:35:38;;;;;;;0.20;0.20;;;;;;;;;;5064729;28;20647;-81
2022/06/05 14:38:09;;;;;;;0.63;0.63;;;;;;;;;;5064362;28;20029;-81
2022/06/05 14:40:47;;;;;;;0.30;0.30;;;;;;;;;;5063414;28;20682;-80
2022/06/05 14:43:33;;;;;;;0.30;0.30;;;;;;;;;;5062646;28;20468;-80
2022/06/05 14:46:20;;;;;;;0.22;0.22;;;;;;;;;;5049214;28;20556;-81
2022/06/05 14:48:53;;;;;;;1.42;0.20;;;;;;;;;;5062510;28;20024;-81
2022/06/05 14:51:35;;;;;;;0.10;0.10;;;;;;;;;;5063456;28;20024;-80
2022/06/05 14:54:20;;;;;;;0.60;0.10;;;;;;;;;;5051994;28;20786;-81
2022/06/05 15:00:21;;;;;;;0.40;0.40;;;;;;;;;;5059709;28;20036;-81
2022/06/05 15:02:47;;;;;;;0.20;0.20;;;;;;;;;;4982478;28;20046;-81
2022/06/05 15:05:13;;;;;;;0.10;0.10;;;;;;;;;;4982828;28;20134;-81
2022/06/05 15:07:40;;;;;;;1.38;0.75;;;;;;;;;;4980088;28;20056;-81
2022/06/05 15:10:06;;;;;;;0.10;0.10;;;;;;;;;;4982668;28;20034;-81
2022/06/05 15:12:43;;;;;;;0.52;0.52;;;;;;;;;;4982789;28;20038;-81
2022/06/05 15:15:18;;;;;;;0.10;0.10;;;;;;;;;;4982560;28;20053;-81
2022/06/05 15:17:44;;;;;;;0.20;0.20;;;;;;;;;;4982819;28;20050;-80
2022/06/05 15:20:39;;;;;;;0.35;0.35;;;;;;;;;;4977142;28;20043;-80
2022/06/05 15:23:10;;;;;;;0.00;0.00;;;;;;;;;;4960760;28;20082;-81
2022/06/05 15:25:39;;;;;;;0.08;0.08;;;;;;;;;;4977570;28;20081;-81
2022/06/05 15:28:13;;;;;;;0.55;0.55;;;;;;;;;;4982340;28;20521;-81
2022/06/05 15:31:03;;;;;;;0.10;0.10;;;;;;;;;;4982232;28;20027;-81